createdAt,value
2023-04-23T00:01:48.112Z,96720.41
2023-04-23T00:04:52.942Z,96712.28
2023-04-23T00:07:54.784Z,96719.63
2023-04-23T00:10:56.680Z,96720.56
2023-04-23T00:13:58.368Z,96717.53
2023-04-23T00:16:59.796Z,96724.34
2023-04-23T00:20:01.346Z,96719.16
2023-04-23T00:23:02.905Z,96715.41
2023-04-23T00:26:04.716Z,96711.22
2023-04-23T00:29:06.140Z,96723.41
2023-04-23T00:32:07.951Z,96722.84
2023-04-23T00:35:09.756Z,96719.81
2023-04-23T00:38:11.376Z,96722.38
2023-04-23T00:41:12.962Z,96725.06
2023-04-23T00:44:14.871Z,96729.41
2023-04-23T00:47:16.854Z,96726.97
2023-04-23T00:50:18.738Z,96730.91
2023-04-23T00:53:20.286Z,96728.66
2023-04-23T00:56:23.890Z,96737.34
2023-04-23T00:59:26.311Z,96744.66
2023-04-23T01:02:31.147Z,96734.09
2023-04-23T01:05:32.830Z,96738.00
2023-04-23T01:08:34.861Z,96735.00
2023-04-23T01:11:39.492Z,96748.19
2023-04-23T01:14:41.655Z,96745.59
2023-04-23T01:17:43.487Z,96749.66
2023-04-23T01:20:45.026Z,96738.16
2023-04-23T01:23:46.774Z,96744.47
2023-04-23T01:26:48.332Z,96738.53
2023-04-23T01:29:49.862Z,96738.09
2023-04-23T01:32:55.229Z,96741.66
2023-04-23T01:35:57.447Z,96742.75
2023-04-23T01:38:59.087Z,96740.78
2023-04-23T01:42:01.443Z,96736.63
2023-04-23T01:45:03.618Z,96734.28
2023-04-23T01:48:05.450Z,96717.53
2023-04-23T01:51:07.159Z,96718.19
2023-04-23T01:54:08.656Z,96730.25
2023-04-23T01:57:10.827Z,96739.72
2023-04-23T02:00:14.812Z,96727.53
2023-04-23T02:03:16.494Z,96715.91
2023-04-23T02:06:18.272Z,96711.22
2023-04-23T02:09:19.884Z,96713.88
2023-04-23T02:12:21.409Z,96710.25
2023-04-23T02:15:22.942Z,96708.13
2023-04-23T02:18:24.591Z,96719.78
2023-04-23T02:21:27.358Z,96714.72
2023-04-23T02:24:28.882Z,96725.84
2023-04-23T02:27:30.500Z,96720.31
2023-04-23T02:30:32.123Z,96721.94
2023-04-23T02:33:33.660Z,96717.59
2023-04-23T02:36:35.096Z,96715.31
2023-04-23T02:39:38.954Z,96705.81
2023-04-23T02:42:43.236Z,96699.00
2023-04-23T02:45:45.490Z,96707.09
2023-04-23T02:48:47.107Z,96703.59
2023-04-23T02:51:48.654Z,96704.44
2023-04-23T02:54:51.078Z,96706.41
2023-04-23T02:57:52.536Z,96708.03
2023-04-23T03:00:54.672Z,96708.53
2023-04-23T03:03:56.533Z,96699.97
2023-04-23T03:06:58.528Z,96718.53
2023-04-23T03:10:00.212Z,96709.50
2023-04-23T03:13:01.773Z,96705.84
2023-04-23T03:16:03.722Z,96721.75
2023-04-23T03:19:05.398Z,96723.41
2023-04-23T03:22:07.000Z,96721.91
2023-04-23T03:25:09.187Z,96715.34
2023-04-23T03:28:10.711Z,96722.56
2023-04-23T03:31:12.955Z,96705.84
2023-04-23T03:34:14.737Z,96700.25
2023-04-23T03:37:16.624Z,96705.16
2023-04-23T03:40:19.533Z,96703.13
2023-04-23T03:43:23.898Z,96692.16
2023-04-23T03:46:48.284Z,96686.97
2023-04-23T03:49:51.415Z,96693.16
2023-04-23T03:52:53.084Z,96684.50
2023-04-23T03:56:14.590Z,96679.97
2023-04-23T03:59:24.049Z,96680.13
2023-04-23T04:02:28.191Z,96684.28
2023-04-23T04:05:29.952Z,96677.75
2023-04-23T04:08:31.569Z,96678.63
2023-04-23T04:11:33.043Z,96670.25
2023-04-23T04:14:34.619Z,96678.47
2023-04-23T04:17:36.149Z,96672.88
2023-04-23T04:20:37.882Z,96674.44
2023-04-23T04:23:39.849Z,96670.41
2023-04-23T04:26:42.071Z,96678.34
2023-04-23T04:29:43.647Z,96681.06
2023-04-23T04:32:46.229Z,96674.97
2023-04-23T04:35:49.631Z,96672.19
2023-04-23T04:38:51.848Z,96676.34
2023-04-23T04:41:54.437Z,96678.16
2023-04-23T04:44:59.228Z,96669.28
2023-04-23T04:48:00.805Z,96677.19
2023-04-23T04:51:02.299Z,96678.34
2023-04-23T04:54:04.155Z,96671.53
2023-04-23T04:57:06.392Z,96678.41
2023-04-23T05:00:29.297Z,96676.78
2023-04-23T05:03:31.376Z,96683.53
2023-04-23T05:06:32.967Z,96684.66
2023-04-23T05:09:34.529Z,96677.25
2023-04-23T05:12:37.188Z,96676.47
2023-04-23T05:15:38.660Z,96668.16
2023-04-23T05:18:41.396Z,96677.56
2023-04-23T05:21:42.904Z,96680.72
2023-04-23T05:24:45.488Z,96670.53
2023-04-23T05:27:47.033Z,96671.78
2023-04-23T05:30:49.655Z,96677.03
2023-04-23T05:33:51.216Z,96673.84
2023-04-23T05:36:52.745Z,96664.72
2023-04-23T05:39:54.251Z,96669.66
2023-04-23T05:42:58.286Z,96657.66
2023-04-23T05:45:59.751Z,96667.63
2023-04-23T05:49:01.253Z,96668.66
2023-04-23T05:52:03.172Z,96667.41
2023-04-23T05:55:05.396Z,96659.53
2023-04-23T05:58:07.126Z,96658.22
2023-04-23T06:01:08.691Z,96656.25
2023-04-23T06:04:10.354Z,96662.28
2023-04-23T06:07:12.683Z,96665.09
2023-04-23T06:10:14.320Z,96662.47
2023-04-23T06:13:16.292Z,96661.00
2023-04-23T06:16:17.836Z,96662.47
2023-04-23T06:19:19.335Z,96657.47
2023-04-23T06:22:20.902Z,96659.34
2023-04-23T06:25:22.493Z,96658.44
2023-04-23T06:28:24.266Z,96654.03
2023-04-23T06:32:01.558Z,96654.03
2023-04-23T06:35:09.513Z,96651.91
2023-04-23T06:38:11.048Z,96656.38
2023-04-23T06:41:15.376Z,96640.69
2023-04-23T06:44:16.877Z,96640.16
2023-04-23T06:47:27.085Z,96638.13
2023-04-23T06:50:28.702Z,96640.56
2023-04-23T06:53:30.287Z,96639.47
2023-04-23T06:56:31.745Z,96635.94
2023-04-23T06:59:33.349Z,96640.25
2023-04-23T07:02:36.217Z,96631.63
2023-04-23T07:05:37.785Z,96630.31
2023-04-23T07:08:39.777Z,96624.59
2023-04-23T07:11:41.447Z,96620.28
2023-04-23T07:14:43.760Z,96612.81
2023-04-23T07:17:46.096Z,96613.31
2023-04-23T07:20:47.611Z,96606.31
2023-04-23T07:23:49.087Z,96605.81
2023-04-23T07:26:50.725Z,96603.34
2023-04-23T07:29:52.254Z,96595.03
2023-04-23T07:32:54.464Z,96592.31
2023-04-23T07:35:56.088Z,96587.47
2023-04-23T07:39:06.973Z,96578.91
2023-04-23T07:42:08.941Z,96573.50
2023-04-23T07:45:11.377Z,96569.22
2023-04-23T07:48:12.888Z,96574.34
2023-04-23T07:51:14.500Z,96587.28
2023-04-23T07:54:15.956Z,96575.16
2023-04-23T07:57:17.462Z,96579.66
2023-04-23T08:00:19.056Z,96577.47
2023-04-23T08:03:21.180Z,96577.25
2023-04-23T08:06:23.500Z,96579.72
2023-04-23T08:09:26.001Z,96568.38
2023-04-23T08:12:27.498Z,96561.63
2023-04-23T08:15:29.130Z,96554.91
2023-04-23T08:18:31.043Z,96561.41
2023-04-23T08:21:33.061Z,96552.22
2023-04-23T08:24:34.515Z,96542.53
2023-04-23T08:27:36.575Z,96537.94
2023-04-23T08:30:38.628Z,96539.94
2023-04-23T08:33:40.452Z,96543.09
2023-04-23T08:36:42.007Z,96536.38
2023-04-23T08:39:43.747Z,96535.69
2023-04-23T08:42:49.599Z,96525.25
2023-04-23T08:45:51.398Z,96522.38
2023-04-23T08:48:53.416Z,96526.59
2023-04-23T08:51:58.285Z,96521.22
2023-04-23T08:55:01.483Z,96514.00
2023-04-23T08:58:06.284Z,96502.69
2023-04-23T09:01:08.531Z,96500.25
2023-04-23T09:04:11.158Z,96499.72
2023-04-23T09:07:13.124Z,96495.13
2023-04-23T09:10:18.262Z,96494.09
2023-04-23T09:13:20.273Z,96482.53
2023-04-23T09:16:21.936Z,96492.44
2023-04-23T09:19:27.599Z,96491.13
2023-04-23T09:22:49.384Z,96470.94
2023-04-23T09:25:51.020Z,96473.28
2023-04-23T09:28:52.686Z,96467.03
2023-04-23T09:31:56.111Z,96466.88
2023-04-23T09:34:57.756Z,96458.84
2023-04-23T09:37:59.326Z,96460.06
2023-04-23T09:41:20.919Z,96454.97
2023-04-23T09:44:23.136Z,96460.47
2023-04-23T09:47:25.425Z,96463.34
2023-04-23T09:50:37.013Z,96452.34
2023-04-23T09:53:45.847Z,96444.94
2023-04-23T09:56:53.662Z,96439.38
2023-04-23T10:00:07.225Z,96451.47
2023-04-23T10:03:15.777Z,96452.19
2023-04-23T10:06:37.072Z,96437.78
2023-04-23T10:09:41.824Z,96439.31
2023-04-23T10:12:54.131Z,96430.75
2023-04-23T10:16:04.703Z,96432.69
2023-04-23T10:19:12.549Z,96428.00
2023-04-23T10:22:19.356Z,96429.34
2023-04-23T10:25:24.397Z,96421.88
2023-04-23T10:28:31.853Z,96419.44
2023-04-23T10:31:33.983Z,96402.41
2023-04-23T10:34:35.725Z,96398.84
2023-04-23T10:37:38.333Z,96408.25
2023-04-23T10:40:44.447Z,96400.28
2023-04-23T10:43:45.988Z,96400.50
2023-04-23T10:46:58.473Z,96395.66
2023-04-23T10:50:18.977Z,96401.09
2023-04-23T10:53:23.409Z,96392.97
2023-04-23T10:56:28.019Z,96381.03
2023-04-23T10:59:34.076Z,96376.09
2023-04-23T11:02:45.073Z,96378.31
2023-04-23T11:05:46.708Z,96379.13
2023-04-23T11:08:53.784Z,96377.22
2023-04-23T11:11:55.717Z,96368.63
2023-04-23T11:15:01.675Z,96362.00
2023-04-23T11:18:03.268Z,96364.19
2023-04-23T11:21:05.049Z,96353.75
2023-04-23T11:24:07.785Z,96345.00
2023-04-23T11:27:14.390Z,96346.88
2023-04-23T11:30:18.763Z,96341.47
2023-04-23T11:33:20.395Z,96333.84
2023-04-23T11:36:23.076Z,96331.28
2023-04-23T11:39:24.791Z,96332.59
2023-04-23T11:42:26.769Z,96324.78
2023-04-23T11:45:29.852Z,96329.19
2023-04-23T11:48:31.370Z,96324.00
2023-04-23T11:51:32.818Z,96324.06
2023-04-23T11:54:34.751Z,96306.88
2023-04-23T11:57:37.412Z,96300.50
2023-04-23T12:00:39.019Z,96287.03
2023-04-23T12:03:40.713Z,96286.63
2023-04-23T12:06:45.562Z,96292.59
2023-04-23T12:09:47.195Z,96282.94
2023-04-23T12:12:54.729Z,96279.53
2023-04-23T12:15:59.045Z,96268.78
2023-04-23T12:19:01.130Z,96266.63
2023-04-23T12:22:04.263Z,96269.56
2023-04-23T12:25:09.517Z,96271.09
2023-04-23T12:28:11.007Z,96254.34
2023-04-23T12:31:19.331Z,96266.03
2023-04-23T12:34:21.618Z,96265.13
2023-04-23T12:37:28.558Z,96256.81
2023-04-23T12:40:30.022Z,96256.44
2023-04-23T12:43:32.069Z,96258.34
2023-04-23T12:46:37.729Z,96250.38
2023-04-23T12:49:40.879Z,96248.34
2023-04-23T12:52:43.233Z,96252.13
2023-04-23T12:55:45.666Z,96253.22
2023-04-23T12:58:47.983Z,96253.50
2023-04-23T13:01:50.924Z,96243.81
2023-04-23T13:04:54.478Z,96238.88
2023-04-23T13:07:56.021Z,96230.59
2023-04-23T13:10:57.471Z,96228.13
2023-04-23T13:13:59.029Z,96220.81
2023-04-23T13:17:00.922Z,96203.72
2023-04-23T13:20:02.520Z,96203.66
2023-04-23T13:23:04.100Z,96193.31
2023-04-23T13:26:08.186Z,96192.50
2023-04-23T13:29:09.744Z,96194.28
2023-04-23T13:32:11.356Z,96190.78
2023-04-23T13:35:14.439Z,96189.22
2023-04-23T13:38:16.682Z,96186.66
2023-04-23T13:41:18.220Z,96185.66
2023-04-23T13:44:19.730Z,96170.44
2023-04-23T13:47:21.627Z,96164.09
2023-04-23T13:50:23.108Z,96156.53
2023-04-23T13:53:25.373Z,96156.72
2023-04-23T13:56:27.545Z,96153.63
2023-04-23T13:59:29.236Z,96145.53
2023-04-23T14:02:30.850Z,96145.44
2023-04-23T14:05:32.503Z,96138.63
2023-04-23T14:08:36.717Z,96139.78
2023-04-23T14:11:40.320Z,96146.47
2023-04-23T14:14:41.997Z,96157.38
2023-04-23T14:17:45.384Z,96183.59
2023-04-23T14:20:46.940Z,96197.13
2023-04-23T14:23:48.346Z,96152.53
2023-04-23T14:26:50.310Z,96128.81
2023-04-23T14:29:57.853Z,96151.31
2023-04-23T14:32:59.527Z,96167.03
2023-04-23T14:36:01.264Z,96168.53
2023-04-23T14:39:05.364Z,96188.13
2023-04-23T14:42:06.805Z,96186.59
2023-04-23T14:45:08.819Z,96184.31
2023-04-23T14:48:10.489Z,96191.91
2023-04-23T14:51:11.993Z,96189.06
2023-04-23T14:54:13.702Z,96201.19
2023-04-23T14:57:15.241Z,96186.25
2023-04-23T15:00:17.672Z,96189.22
2023-04-23T15:03:19.361Z,96187.22
2023-04-23T15:06:21.301Z,96177.41
2023-04-23T15:09:22.867Z,96174.44
2023-04-23T15:12:47.360Z,96166.00
2023-04-23T15:15:50.690Z,96163.50
2023-04-23T15:18:52.219Z,96170.78
2023-04-23T15:21:53.893Z,96171.25
2023-04-23T15:24:55.395Z,96189.47
2023-04-23T15:27:57.869Z,96170.31
2023-04-23T15:30:59.377Z,96174.38
2023-04-23T15:34:01.665Z,96186.88
2023-04-23T15:37:03.163Z,96193.72
2023-04-23T15:40:05.057Z,96184.47
2023-04-23T15:43:06.589Z,96181.06
2023-04-23T15:46:08.188Z,96193.72
2023-04-23T15:49:09.823Z,96191.25
2023-04-23T15:52:11.296Z,96190.75
2023-04-23T15:55:12.757Z,96196.09
2023-04-23T15:58:14.219Z,96188.53
2023-04-23T16:01:17.386Z,96193.66
2023-04-23T16:04:19.023Z,96192.97
2023-04-23T16:07:20.794Z,96189.34
2023-04-23T16:10:22.328Z,96185.69
2023-04-23T16:13:24.256Z,96189.97
2023-04-23T16:16:26.009Z,96185.34
2023-04-23T16:19:28.390Z,96193.75
2023-04-23T16:22:29.880Z,96188.09
2023-04-23T16:25:31.355Z,96192.38
2023-04-23T16:28:32.846Z,96187.50
2023-04-23T16:31:34.491Z,96193.94
2023-04-23T16:34:35.961Z,96196.34
2023-04-23T16:37:37.768Z,96199.19
2023-04-23T16:40:39.815Z,96195.19
2023-04-23T16:43:41.437Z,96184.84
2023-04-23T16:46:43.176Z,96201.06
2023-04-23T16:49:46.048Z,96179.59
2023-04-23T16:52:47.708Z,96197.91
2023-04-23T16:55:49.279Z,96187.97
2023-04-23T16:58:50.831Z,96190.38
2023-04-23T17:01:52.375Z,96188.75
2023-04-23T17:04:54.041Z,96190.09
2023-04-23T17:07:55.839Z,96197.34
2023-04-23T17:10:57.545Z,96197.88
2023-04-23T17:13:59.037Z,96189.31
2023-04-23T17:17:00.638Z,96185.25
2023-04-23T17:20:03.688Z,96190.38
2023-04-23T17:23:05.150Z,96188.47
2023-04-23T17:26:06.922Z,96183.84
2023-04-23T17:29:08.397Z,96193.25
2023-04-23T17:32:09.929Z,96191.31
2023-04-23T17:35:11.510Z,96190.28
2023-04-23T17:38:13.820Z,96213.00
2023-04-23T17:41:16.925Z,96232.09
2023-04-23T17:44:18.441Z,96264.03
2023-04-23T17:47:20.064Z,96295.50
2023-04-23T17:50:22.007Z,96319.22
2023-04-23T17:53:23.531Z,96324.00
2023-04-23T17:56:25.054Z,96335.31
2023-04-23T17:59:26.522Z,96341.78
2023-04-23T18:02:28.224Z,96342.28
2023-04-23T18:05:30.878Z,96350.03
2023-04-23T18:08:32.365Z,96350.19
2023-04-23T18:11:33.993Z,96345.06
2023-04-23T18:14:35.472Z,96349.47
2023-04-23T18:17:37.097Z,96349.81
2023-04-23T18:20:40.094Z,96339.28
2023-04-23T18:23:41.662Z,96352.13
2023-04-23T18:26:43.138Z,96345.75
2023-04-23T18:29:45.401Z,96359.78
2023-04-23T18:32:49.154Z,96348.53
2023-04-23T18:35:53.207Z,96358.06
2023-04-23T18:38:54.775Z,96364.44
2023-04-23T18:41:56.584Z,96341.34
2023-04-23T18:44:58.290Z,96367.56
2023-04-23T18:48:23.291Z,96366.19
2023-04-23T18:51:30.056Z,96363.72
2023-04-23T18:54:31.579Z,96361.53
2023-04-23T18:57:33.135Z,96382.28
2023-04-23T19:00:34.758Z,96359.00
2023-04-23T19:03:36.761Z,96365.09
2023-04-23T19:06:38.541Z,96368.97
2023-04-23T19:09:40.420Z,96370.31
2023-04-23T19:12:43.093Z,96344.38
2023-04-23T19:15:44.647Z,96347.03
2023-04-23T19:18:46.205Z,96352.47
2023-04-23T19:21:47.685Z,96346.69
2023-04-23T19:24:49.157Z,96348.28
2023-04-23T19:27:50.808Z,96358.16
2023-04-23T19:30:52.372Z,96361.53
2023-04-23T19:33:53.829Z,96355.88
2023-04-23T19:36:55.253Z,96359.09
2023-04-23T19:39:56.701Z,96364.31
2023-04-23T19:42:58.219Z,96369.97
2023-04-23T19:46:03.206Z,96377.53
2023-04-23T19:49:04.770Z,96370.81
2023-04-23T19:52:07.116Z,96360.47
2023-04-23T19:55:08.994Z,96358.03
2023-04-23T19:58:10.695Z,96363.72
2023-04-23T20:01:13.114Z,96368.47
2023-04-23T20:04:14.965Z,96369.28
2023-04-23T20:07:16.968Z,96368.38
2023-04-23T20:10:18.421Z,96379.84
2023-04-23T20:13:20.715Z,96358.72
2023-04-23T20:16:22.239Z,96382.72
2023-04-23T20:19:25.881Z,96391.22
2023-04-23T20:22:31.003Z,96386.00
2023-04-23T20:25:32.554Z,96391.66
2023-04-23T20:28:34.310Z,96400.38
2023-04-23T20:31:36.316Z,96399.44
2023-04-23T20:34:37.767Z,96407.78
2023-04-23T20:37:40.691Z,96402.66
2023-04-23T20:40:42.270Z,96396.19
2023-04-23T20:43:43.786Z,96401.53
2023-04-23T20:46:45.314Z,96408.34
2023-04-23T20:49:46.845Z,96400.34
2023-04-23T20:52:48.593Z,96406.59
2023-04-23T20:55:50.312Z,96407.78
2023-04-23T20:58:51.907Z,96396.31
2023-04-23T21:01:53.608Z,96399.09
2023-04-23T21:04:55.217Z,96382.34
2023-04-23T21:07:56.810Z,96385.50
2023-04-23T21:10:58.621Z,96384.81
2023-04-23T21:14:00.968Z,96386.09
2023-04-23T21:17:02.539Z,96382.16
2023-04-23T21:20:08.245Z,96384.13
2023-04-23T21:23:13.164Z,96384.72
2023-04-23T21:26:14.642Z,96385.16
2023-04-23T21:29:16.260Z,96363.25
2023-04-23T21:32:17.761Z,96382.75
2023-04-23T21:35:19.547Z,96373.09
2023-04-23T21:38:21.487Z,96366.97
2023-04-23T21:41:24.460Z,96369.63
2023-04-23T21:44:28.444Z,96376.97
2023-04-23T21:47:29.979Z,96369.41
2023-04-23T21:50:32.700Z,96356.28
2023-04-23T21:53:34.352Z,96351.75
2023-04-23T21:56:35.914Z,96357.09
2023-04-23T21:59:37.472Z,96360.25
2023-04-23T22:02:40.383Z,96354.13
2023-04-23T22:05:42.429Z,96354.91
2023-04-23T22:08:44.913Z,96364.78
2023-04-23T22:12:01.104Z,96362.81
2023-04-23T22:15:08.501Z,96357.81
2023-04-23T22:18:10.311Z,96341.22
2023-04-23T22:21:11.800Z,96344.94
2023-04-23T22:24:13.304Z,96330.06
2023-04-23T22:27:14.859Z,96336.69
2023-04-23T22:30:16.385Z,96331.69
2023-04-23T22:33:18.037Z,96332.50
2023-04-23T22:36:19.665Z,96325.53
2023-04-23T22:39:21.395Z,96314.28
2023-04-23T22:42:22.921Z,96313.16
2023-04-23T22:45:24.428Z,96303.19
2023-04-23T22:48:27.926Z,96304.38
2023-04-23T22:51:33.369Z,96313.06
2023-04-23T22:54:34.939Z,96295.91
2023-04-23T22:57:36.454Z,96323.88
2023-04-23T23:00:38.179Z,96342.19
2023-04-23T23:03:39.759Z,96319.00
2023-04-23T23:06:42.999Z,96316.56
2023-04-23T23:09:44.707Z,96314.13
2023-04-23T23:12:46.360Z,96313.53
2023-04-23T23:15:47.930Z,96306.91
2023-04-23T23:18:49.585Z,96301.94
2023-04-23T23:21:51.526Z,96298.56
2023-04-23T23:24:53.035Z,96299.03
2023-04-23T23:27:54.497Z,96274.25
2023-04-23T23:30:56.083Z,96291.72
2023-04-23T23:33:57.773Z,96288.06
2023-04-23T23:36:59.291Z,96279.44
2023-04-23T23:40:00.824Z,96270.09
2023-04-23T23:43:02.276Z,96283.66
2023-04-23T23:46:03.815Z,96277.06
2023-04-23T23:49:06.091Z,96279.59
2023-04-23T23:52:07.559Z,96294.34
2023-04-23T23:55:10.247Z,96280.53
2023-04-23T23:58:11.751Z,96287.03
